Terminal Aerodrome Forecast
Issued by NWS

Home | Current Version | Previous Version | Text Only | Print | Product List | Glossary On
Versions: 1 2 3 4 5 6 7 8 9 10 11 12
000
FTUS45 KREV 291725
TAFRNO
TAF
KRNO 291725Z 2918/3018 VRB04KT P6SM SKC
     FM292200 29012G20KT P6SM VCTS SCT110CB BKN200
     FM300200 33009KT P6SM BKN200
     FM300700 VRB04KT P6SM SCT250=

USA.gov is the U.S. government's official web portal to all federal, state and local government web resources and services.